Whatley, Alabama
Current Conditions -  °F | °C
As of 10:53 PM on Wednesday 26 Nov 2014 (Local Time) from KGZH Reporting Station
Clear Clear  
Wind Chill: 52°   Ceiling: Unl
Heat Index: 52°   Visibility: 10mi
Dew Point: 40°   Wind: 9mph
Humidity: 63%   Direction: 240°WSW
Pressure: 30.17"   Gusts: NA
Location:  31.65°N, 87.7°W
Report Text: KGZH 270453Z AUTO 24008KT 10SM CLR 11/04 A3017 RMK AO2 SLP217 T01110044
Loading
Personal Weather Stations






























Interactive Weather Map New forecast layout! Learn more

10-Day Weather Forecast

Advertisements
Track Severe Weather on mobile